Time;durP1;ratioP1;P1;durP2;ratioP2;P2;SDS_P1;SDS_P2;PMS_P1;PMS_P2;Temp;Humidity;BMP_temperature;BMP_pressure;BME280_temperature;BME280_humidity;BME280_pressure;Samples;Min_cycle;Max_cycle;Signal;HPM_P1;HPM_P2
2022/01/25 00:26:48;;;;;;;101.40;38.22;;;;;;;-145.00;100.00;60578.66;5075222;28;20052;-52
2022/01/25 00:29:28;;;;;;;107.10;39.88;;;;;;;-145.00;100.00;60578.66;5073898;28;20052;-52
2022/01/25 00:31:57;;;;;;;94.60;38.88;;;;;;;-145.00;100.00;60578.66;5075390;28;20072;-52
2022/01/25 00:34:25;;;;;;;90.60;36.03;;;;;;;-145.00;100.00;60578.66;5075059;28;20060;-52
2022/01/25 00:36:53;;;;;;;89.60;38.42;;;;;;;-145.00;100.00;60578.66;5074487;28;20063;-53
2022/01/25 00:39:23;;;;;;;90.97;35.78;;;;;;;-145.00;100.00;60578.66;5074956;28;20059;-53
2022/01/25 00:41:51;;;;;;;84.85;36.28;;;;;;;-145.00;100.00;60578.66;5074017;28;20060;-52
2022/01/25 00:44:20;;;;;;;113.07;44.00;;;;;;;-145.00;100.00;60578.66;5074704;28;20056;-52
2022/01/25 00:46:49;;;;;;;143.77;51.65;;;;;;;-145.00;100.00;60578.66;5074379;28;20056;-52
2022/01/25 00:49:25;;;;;;;98.95;41.47;;;;;;;-145.00;100.00;60578.66;5074356;28;20122;-52
2022/01/25 00:52:07;;;;;;;98.55;41.15;;;;;;;-145.00;100.00;60578.66;5075194;28;20436;-52
2022/01/25 00:54:40;;;;;;;104.45;38.00;;;;;;;-145.00;100.00;60578.66;5074678;28;20057;-52
2022/01/25 00:57:09;;;;;;;89.45;37.22;;;;;;;-145.00;100.00;60578.66;5074871;28;20056;-53
2022/01/25 00:59:37;;;;;;;89.38;35.47;;;;;;;-145.00;100.00;60578.66;5074524;28;20052;-52
2022/01/25 01:02:07;;;;;;;101.40;40.92;;;;;;;-145.00;100.00;60578.66;5073859;28;20059;-52
2022/01/25 01:04:36;;;;;;;101.75;38.08;;;;;;;-145.00;100.00;60578.66;5073913;28;20594;-52
2022/01/25 01:07:07;;;;;;;97.35;39.35;;;;;;;-145.00;100.00;60578.66;5073826;28;20063;-52
2022/01/25 01:09:39;;;;;;;94.78;36.97;;;;;;;-145.00;100.00;60578.66;5073898;28;20075;-52
2022/01/25 01:12:14;;;;;;;95.68;37.33;;;;;;;-145.00;100.00;60578.66;5074195;28;20424;-52
2022/01/25 01:15:01;;;;;;;93.07;35.50;;;;;;;-145.00;100.00;60578.66;5073836;28;20131;-53
2022/01/25 01:31:48;;;;;;;95.22;36.63;;;;;;;-145.00;100.00;60578.66;5012012;28;20484;-52
2022/01/25 01:35:04;;;;;;;76.28;33.53;;;;;;;-145.00;100.00;60578.66;5011459;28;20073;-52
2022/01/25 01:37:51;;;;;;;96.00;37.42;;;;;;;-145.00;100.00;60578.66;5066531;28;20068;-52
2022/01/25 01:40:44;;;;;;;97.28;37.70;;;;;;;-145.00;100.00;60578.66;5074997;28;20503;-52
2022/01/25 01:43:27;;;;;;;96.50;37.28;;;;;;;-145.00;100.00;60578.66;5077084;28;20052;-53
2022/01/25 01:46:03;;;;;;;82.05;33.60;;;;;;;-145.00;100.00;60578.66;5076975;28;20092;-52
2022/01/25 01:48:35;;;;;;;102.40;39.60;;;;;;;-145.00;100.00;60578.66;5077520;28;20122;-52
2022/01/25 01:51:08;;;;;;;94.60;38.83;;;;;;;-145.00;100.00;60578.66;5076893;28;20060;-52
2022/01/25 01:53:36;;;;;;;92.05;35.35;;;;;;;-145.00;100.00;60578.66;5077700;28;20082;-52
2022/01/25 01:56:05;;;;;;;94.80;37.22;;;;;;;-145.00;100.00;60578.66;5077109;28;20061;-52
2022/01/25 01:58:36;;;;;;;82.78;35.53;;;;;;;-145.00;100.00;60578.66;5076915;28;20071;-53
2022/01/25 02:01:08;;;;;;;91.00;36.88;;;;;;;-145.00;100.00;60578.66;5076716;28;20071;-52
2022/01/25 02:03:37;;;;;;;85.80;35.10;;;;;;;-145.00;100.00;60578.66;5076654;28;20060;-52
2022/01/25 02:06:05;;;;;;;87.25;34.47;;;;;;;-145.00;100.00;60578.66;5076648;28;20053;-52
2022/01/25 02:08:34;;;;;;;84.53;34.00;;;;;;;-145.00;100.00;60578.66;5077107;28;20052;-52
2022/01/25 02:11:02;;;;;;;89.63;35.50;;;;;;;-145.00;100.00;60578.66;5076801;28;20061;-52
2022/01/25 02:13:30;;;;;;;77.40;31.10;;;;;;;-145.00;100.00;60578.66;5077846;28;20067;-52
2022/01/25 02:16:04;;;;;;;85.47;32.72;;;;;;;-145.00;100.00;60578.66;5076437;28;20053;-52
2022/01/25 02:24:07;;;;;;;73.72;29.65;;;;;;;-145.00;100.00;60578.66;5076316;28;20059;-52
2022/01/25 02:26:36;;;;;;;76.05;30.55;;;;;;;-145.00;100.00;60578.66;5077427;28;20056;-52
2022/01/25 02:29:04;;;;;;;81.28;31.45;;;;;;;-145.00;100.00;60578.66;5076452;28;20070;-52
2022/01/25 02:31:32;;;;;;;76.90;30.33;;;;;;;-145.00;100.00;60578.66;5076728;28;20060;-52
2022/01/25 02:34:00;;;;;;;81.38;31.65;;;;;;;-145.00;100.00;60578.66;5076334;28;20060;-52
2022/01/25 02:36:30;;;;;;;70.90;30.30;;;;;;;-145.00;100.00;60578.66;5076344;28;20070;-52
2022/01/25 02:39:00;;;;;;;79.05;31.67;;;;;;;-145.00;100.00;60578.66;5076619;28;20053;-52
2022/01/25 02:41:28;;;;;;;87.47;31.42;;;;;;;-145.00;100.00;60578.66;5077281;28;20057;-52
2022/01/25 02:43:58;;;;;;;84.18;29.92;;;;;;;-145.00;100.00;60578.66;5076483;28;20052;-52
2022/01/25 02:49:13;;;;;;;78.57;29.63;;;;;;;-145.00;100.00;60578.66;5076717;28;20056;-52
2022/01/25 02:51:45;;;;;;;72.25;30.17;;;;;;;-145.00;100.00;60578.66;5075084;28;20139;-52
2022/01/25 02:54:14;;;;;;;78.93;30.95;;;;;;;-145.00;100.00;60578.66;5075737;28;20063;-52
2022/01/25 02:56:44;;;;;;;69.82;28.70;;;;;;;-145.00;100.00;60578.66;5076229;28;20049;-52
2022/01/25 02:59:14;;;;;;;87.20;31.05;;;;;;;-145.00;100.00;60578.66;5076454;28;20060;-52
2022/01/25 03:01:43;;;;;;;79.40;30.13;;;;;;;-145.00;100.00;60578.66;5076185;28;20059;-52
2022/01/25 03:04:13;;;;;;;83.05;29.60;;;;;;;-145.00;100.00;60578.66;5075796;28;20512;-53
2022/01/25 03:06:43;;;;;;;81.75;32.88;;;;;;;-145.00;100.00;60578.66;5076584;28;20053;-52
2022/01/25 03:09:13;;;;;;;70.60;29.48;;;;;;;-145.00;100.00;60578.66;5076516;28;20405;-52
2022/01/25 03:11:42;;;;;;;73.70;29.60;;;;;;;-145.00;100.00;60578.66;5075618;28;20067;-52
2022/01/25 03:14:11;;;;;;;74.25;29.55;;;;;;;-145.00;100.00;60578.66;5075562;28;20056;-52
2022/01/25 03:16:44;;;;;;;78.88;30.13;;;;;;;-145.00;100.00;60578.66;5075816;28;20064;-52
2022/01/25 03:19:44;;;;;;;75.43;29.63;;;;;;;-145.00;100.00;60578.66;5075228;28;20048;-52
2022/01/25 03:22:18;;;;;;;71.03;28.52;;;;;;;-145.00;100.00;60578.66;5075625;28;20067;-52
2022/01/25 03:24:47;;;;;;;72.72;28.48;;;;;;;-145.00;100.00;60578.66;5076296;28;20052;-52
2022/01/25 03:27:15;;;;;;;71.93;28.65;;;;;;;-145.00;100.00;60578.66;5075329;28;20064;-52
2022/01/25 03:29:44;;;;;;;74.82;30.50;;;;;;;-145.00;100.00;60578.66;5075280;28;20063;-52
2022/01/25 03:32:12;;;;;;;68.35;28.73;;;;;;;-145.00;100.00;60578.66;5075199;28;20056;-52
2022/01/25 03:34:40;;;;;;;65.95;28.02;;;;;;;-145.00;100.00;60578.66;5076100;28;20060;-52
2022/01/25 03:37:08;;;;;;;67.95;27.80;;;;;;;-145.00;100.00;60578.66;5075114;28;20059;-52
2022/01/25 03:39:38;;;;;;;68.15;28.35;;;;;;;-145.00;100.00;60578.66;5075040;28;20052;-52
2022/01/25 03:42:09;;;;;;;76.50;30.45;;;;;;;-145.00;100.00;60578.66;5075721;28;20060;-52
2022/01/25 03:44:39;;;;;;;71.60;28.20;;;;;;;-145.00;100.00;60578.66;5074772;28;20527;-52
2022/01/25 03:47:11;;;;;;;66.47;27.45;;;;;;;-145.00;100.00;60578.66;5075230;28;20067;-52
2022/01/25 03:49:50;;;;;;;69.90;28.60;;;;;;;-145.00;100.00;60578.66;5076051;28;20396;-52
2022/01/25 03:52:24;;;;;;;68.13;26.38;;;;;;;-145.00;100.00;60578.66;5075294;28;20060;-52
2022/01/25 03:54:54;;;;;;;78.50;27.67;;;;;;;-145.00;100.00;60578.66;5074474;28;20068;-52
2022/01/25 03:57:23;;;;;;;71.88;28.45;;;;;;;-145.00;100.00;60578.66;5075013;28;20056;-52
2022/01/25 03:59:51;;;;;;;81.70;28.67;;;;;;;-145.00;100.00;60578.66;5075236;28;20403;-52
2022/01/25 04:02:20;;;;;;;76.78;27.52;;;;;;;-145.00;100.00;60578.66;5074176;28;20103;-52
2022/01/25 04:04:51;;;;;;;73.57;28.77;;;;;;;-145.00;100.00;60578.66;5075163;28;20588;-52
2022/01/25 04:07:28;;;;;;;61.33;27.05;;;;;;;-145.00;100.00;60578.66;5074842;28;20058;-52
2022/01/25 04:09:57;;;;;;;61.65;26.35;;;;;;;-145.00;100.00;60578.66;5074259;28;20056;-52
2022/01/25 04:12:26;;;;;;;71.80;28.65;;;;;;;-145.00;100.00;60578.66;5074453;28;20060;-52
2022/01/25 04:14:54;;;;;;;66.22;26.80;;;;;;;-145.00;100.00;60578.66;5074907;28;20083;-52
2022/01/25 04:17:22;;;;;;;64.95;25.63;;;;;;;-145.00;100.00;60578.66;5075254;28;20052;-52
2022/01/25 04:20:11;;;;;;;70.63;26.95;;;;;;;-145.00;100.00;60578.66;5074316;28;20056;-52
2022/01/25 04:25:26;;;;;;;76.03;27.33;;;;;;;-145.00;100.00;60578.66;5074671;28;20071;-52
2022/01/25 04:27:55;;;;;;;77.28;29.77;;;;;;;-145.00;100.00;60578.66;5074592;28;20052;-52
2022/01/25 04:30:23;;;;;;;69.97;26.58;;;;;;;-145.00;100.00;60578.66;5075355;28;20052;-52
2022/01/25 04:32:58;;;;;;;72.28;27.63;;;;;;;-145.00;100.00;60578.66;5074537;28;20056;-52
2022/01/25 04:35:42;;;;;;;72.85;27.50;;;;;;;-145.00;100.00;60578.66;5074666;28;20056;-52
2022/01/25 04:49:18;;;;;;;61.30;26.23;;;;;;;-145.00;100.00;60578.66;5073833;28;20071;-52
2022/01/25 04:51:55;;;;;;;67.63;27.27;;;;;;;-145.00;100.00;60578.66;5074686;28;20063;-52
2022/01/25 04:54:35;;;;;;;69.70;27.92;;;;;;;-145.00;100.00;60578.66;5074088;28;20060;-52
2022/01/25 04:57:18;;;;;;;63.70;27.80;;;;;;;-145.00;100.00;60578.66;5074053;28;20053;-52
2022/01/25 04:59:52;;;;;;;65.68;28.05;;;;;;;-145.00;100.00;60578.66;5074132;28;20064;-52
2022/01/25 05:02:32;;;;;;;68.38;30.10;;;;;;;-145.00;100.00;60578.66;5074469;28;20059;-52
2022/01/25 05:05:05;;;;;;;76.57;30.25;;;;;;;-145.00;100.00;60578.66;5073945;28;20082;-52
2022/01/25 05:07:40;;;;;;;77.35;30.88;;;;;;;-145.00;100.00;60578.66;5073630;28;20052;-52
2022/01/25 05:10:09;;;;;;;102.38;33.55;;;;;;;-145.00;100.00;60578.66;5074263;28;20057;-52
2022/01/25 05:12:43;;;;;;;93.90;32.97;;;;;;;-145.00;100.00;60578.66;5073761;28;20057;-52
2022/01/25 05:16:00;;;;;;;92.75;33.20;;;;;;;-145.00;100.00;60578.66;5076584;28;20060;-52
2022/01/25 05:18:39;;;;;;;94.32;31.10;;;;;;;-145.00;100.00;60578.66;5078123;28;20549;-53
2022/01/25 05:23:49;;;;;;;;;;;;;;;-145.00;100.00;60578.66;5044813;28;20063;-52
2022/01/25 05:26:17;;;;;;;116.95;29.15;;;;;;;-145.00;100.00;60578.66;5078018;28;19921;-53
2022/01/25 05:28:46;;;;;;;122.18;35.33;;;;;;;-145.00;100.00;60578.66;5077585;28;20056;-53
2022/01/25 05:31:15;;;;;;;97.85;32.10;;;;;;;-145.00;100.00;60578.66;5077804;28;20536;-53
2022/01/25 05:33:43;;;;;;;126.82;32.60;;;;;;;-145.00;100.00;60578.66;5077709;28;20056;-53
2022/01/25 05:36:13;;;;;;;118.80;33.10;;;;;;;-145.00;100.00;60578.66;5077175;28;20063;-53
2022/01/25 05:38:42;;;;;;;103.78;32.20;;;;;;;-145.00;100.00;60578.66;5077373;28;20079;-53
2022/01/25 05:41:12;;;;;;;80.22;30.25;;;;;;;-145.00;100.00;60578.66;5077626;28;20060;-53
2022/01/25 05:44:12;;;;;;;81.97;29.10;;;;;;;-145.00;100.00;60578.66;5077175;28;20064;-53
2022/01/25 05:46:47;;;;;;;66.20;26.63;;;;;;;-145.00;100.00;60578.66;5077229;28;20053;-53
2022/01/25 05:49:15;;;;;;;76.47;26.60;;;;;;;-145.00;100.00;60578.66;5077733;28;20052;-53
2022/01/25 05:51:43;;;;;;;84.57;30.67;;;;;;;-145.00;100.00;60578.66;5077409;28;20056;-53
2022/01/25 05:54:12;;;;;;;91.57;32.67;;;;;;;-145.00;100.00;60578.66;5077933;28;20060;-53
2022/01/25 05:56:40;;;;;;;80.72;28.67;;;;;;;-145.00;100.00;60578.66;5077040;28;20060;-53
2022/01/25 05:59:08;;;;;;;71.78;28.02;;;;;;;-145.00;100.00;60578.66;5077319;28;20503;-53
2022/01/25 06:01:36;;;;;;;96.60;30.08;;;;;;;-145.00;100.00;60578.66;5077065;28;20064;-53
2022/01/25 06:04:07;;;;;;;74.38;30.83;;;;;;;-145.00;100.00;60578.66;5077144;28;20052;-53
2022/01/25 06:06:35;;;;;;;77.93;27.70;;;;;;;-145.00;100.00;60578.66;5076936;28;20516;-53
2022/01/25 06:09:04;;;;;;;70.05;29.55;;;;;;;-145.00;100.00;60578.66;5077404;28;20056;-53
2022/01/25 06:11:32;;;;;;;80.20;31.10;;;;;;;-145.00;100.00;60578.66;5077533;28;20068;-53
2022/01/25 06:14:00;;;;;;;82.05;30.55;;;;;;;-145.00;100.00;60578.66;5076749;28;20075;-53
2022/01/25 06:16:29;;;;;;;79.95;29.00;;;;;;;-145.00;100.00;60578.66;5077920;28;20412;-53
2022/01/25 06:18:57;;;;;;;86.50;29.95;;;;;;;-145.00;100.00;60578.66;5077030;28;20057;-53
2022/01/25 06:21:27;;;;;;;78.18;26.95;;;;;;;-145.00;100.00;60578.66;5077727;28;20063;-53
2022/01/25 06:23:56;;;;;;;106.22;29.52;;;;;;;-145.00;100.00;60578.66;5076290;28;20535;-53
2022/01/25 06:26:24;;;;;;;78.07;28.02;;;;;;;-145.00;100.00;60578.66;5076239;28;20063;-53
2022/01/25 06:28:52;;;;;;;86.00;28.83;;;;;;;-145.00;100.00;60578.66;5077058;28;20052;-53
2022/01/25 06:31:21;;;;;;;76.93;27.02;;;;;;;-145.00;100.00;60578.66;5077464;28;20052;-53
2022/01/25 06:33:49;;;;;;;71.10;29.45;;;;;;;-145.00;100.00;60578.66;5077011;28;20068;-53
2022/01/25 06:36:18;;;;;;;88.40;29.98;;;;;;;-145.00;100.00;60578.66;5076262;28;20063;-53
2022/01/25 06:38:48;;;;;;;66.88;27.00;;;;;;;-145.00;100.00;60578.66;5076271;28;20056;-53
2022/01/25 06:41:17;;;;;;;68.57;25.80;;;;;;;-145.00;100.00;60578.66;5076652;28;20527;-53
2022/01/25 06:43:46;;;;;;;77.38;27.73;;;;;;;-145.00;100.00;60578.66;5076261;28;20059;-53
2022/01/25 06:46:14;;;;;;;75.68;26.75;;;;;;;-145.00;100.00;60578.66;5075764;28;20534;-53
2022/01/25 06:48:42;;;;;;;76.30;27.77;;;;;;;-145.00;100.00;60578.66;5076313;28;20095;-53
2022/01/25 06:51:11;;;;;;;80.60;29.58;;;;;;;-145.00;100.00;60578.66;5075962;28;20061;-53
2022/01/25 06:53:39;;;;;;;82.63;28.35;;;;;;;-145.00;100.00;60578.66;5076177;28;20057;-53
2022/01/25 06:56:09;;;;;;;75.20;27.75;;;;;;;-145.00;100.00;60578.66;5076442;28;20078;-53
2022/01/25 06:58:38;;;;;;;80.85;28.40;;;;;;;-145.00;100.00;60578.66;5075980;28;20071;-53
2022/01/25 07:01:06;;;;;;;81.57;26.80;;;;;;;-145.00;100.00;60578.66;5075960;28;20063;-53
2022/01/25 07:03:35;;;;;;;69.22;27.70;;;;;;;-145.00;100.00;60578.66;5076009;28;20162;-53
2022/01/25 07:06:03;;;;;;;71.53;29.15;;;;;;;-145.00;100.00;60578.66;5075342;28;20082;-53
2022/01/25 07:08:32;;;;;;;85.00;29.88;;;;;;;-145.00;100.00;60578.66;5075678;28;20056;-53
2022/01/25 07:11:00;;;;;;;95.00;30.80;;;;;;;-145.00;100.00;60578.66;5075580;28;20495;-53
2022/01/25 07:13:30;;;;;;;106.85;32.83;;;;;;;-145.00;100.00;60578.66;5076413;28;20060;-54
2022/01/25 07:15:58;;;;;;;102.88;30.20;;;;;;;-145.00;100.00;60578.66;5076465;28;20053;-54
2022/01/25 07:18:27;;;;;;;92.25;30.17;;;;;;;-145.00;100.00;60578.66;5075436;28;20048;-54
2022/01/25 07:20:55;;;;;;;98.05;32.63;;;;;;;-145.00;100.00;60578.66;5075936;28;20056;-54
2022/01/25 07:23:23;;;;;;;102.93;30.90;;;;;;;-145.00;100.00;60578.66;5075615;28;20407;-54
2022/01/25 07:25:51;;;;;;;82.68;29.33;;;;;;;-145.00;100.00;60578.66;5075079;28;20058;-54
2022/01/25 07:28:20;;;;;;;87.55;28.35;;;;;;;-145.00;100.00;60578.66;5075613;28;20585;-54
2022/01/25 07:30:49;;;;;;;83.85;29.42;;;;;;;-145.00;100.00;60578.66;5075247;28;20063;-54
2022/01/25 07:33:26;;;;;;;78.38;29.33;;;;;;;-145.00;100.00;60578.66;5075317;28;20444;-54
2022/01/25 07:35:55;;;;;;;92.63;29.70;;;;;;;-145.00;100.00;60578.66;5074848;28;20135;-54
2022/01/25 07:38:30;;;;;;;120.38;32.17;;;;;;;-145.00;100.00;60578.66;5075029;28;20131;-54
2022/01/25 07:40:59;;;;;;;103.80;30.10;;;;;;;-145.00;100.00;60578.66;5074594;28;20140;-54
2022/01/25 07:43:28;;;;;;;92.90;31.63;;;;;;;-145.00;100.00;60578.66;5075227;28;20057;-54
2022/01/25 07:46:05;;;;;;;112.28;34.13;;;;;;;-145.00;100.00;60578.66;5074436;28;20057;-54
2022/01/25 07:48:37;;;;;;;104.07;31.33;;;;;;;-145.00;100.00;60578.66;5074593;28;20060;-54
2022/01/25 07:51:06;;;;;;;95.05;28.48;;;;;;;-145.00;100.00;60578.66;5075130;28;20457;-54
2022/01/25 07:53:34;;;;;;;96.25;29.25;;;;;;;-145.00;100.00;60578.66;5074958;28;20534;-54
2022/01/25 07:56:02;;;;;;;97.57;30.42;;;;;;;-145.00;100.00;60578.66;5075268;28;20080;-54
2022/01/25 07:58:30;;;;;;;88.57;28.95;;;;;;;-145.00;100.00;60578.66;5075699;28;20064;-54
2022/01/25 08:00:59;;;;;;;100.07;28.98;;;;;;;-145.00;100.00;60578.66;5074908;28;20060;-54
2022/01/25 08:03:29;;;;;;;86.53;27.80;;;;;;;-145.00;100.00;60578.66;5075202;28;20048;-53
2022/01/25 08:06:16;;;;;;;70.25;25.17;;;;;;;-145.00;100.00;60578.66;5074834;28;20063;-53
2022/01/25 08:08:51;;;;;;;64.40;23.77;;;;;;;-145.00;100.00;60578.66;5074262;28;20078;-53
2022/01/25 08:11:19;;;;;;;60.08;22.52;;;;;;;-145.00;100.00;60578.66;5065352;28;20072;-53
2022/01/25 08:14:13;;;;;;;61.03;21.75;;;;;;;-145.00;100.00;60578.66;5074591;28;20060;-53
2022/01/25 08:17:15;;;;;;;68.22;19.83;;;;;;;-145.00;100.00;60578.66;5012433;28;20529;-53
2022/01/25 08:19:52;;;;;;;60.60;20.17;;;;;;;-145.00;100.00;60578.66;5012754;28;20053;-53
2022/01/25 08:22:52;;;;;;;60.90;21.33;;;;;;;-145.00;100.00;60578.66;5011432;28;20057;-53
2022/01/25 08:25:26;;;;;;;58.08;19.13;;;;;;;-145.00;100.00;60578.66;5011573;28;20126;-53
2022/01/25 08:27:57;;;;;;;53.45;19.98;;;;;;;-145.00;100.00;60578.66;5012308;28;20053;-53
2022/01/25 08:30:28;;;;;;;50.38;20.35;;;;;;;-145.00;100.00;60578.66;5011285;28;20058;-54
2022/01/25 08:33:14;;;;;;;49.20;19.90;;;;;;;-145.00;100.00;60578.66;5012403;28;20084;-54
2022/01/25 08:35:56;;;;;;;51.80;18.70;;;;;;;-145.00;100.00;60578.66;5012976;28;20065;-54
2022/01/25 08:38:54;;;;;;;42.72;17.60;;;;;;;-145.00;100.00;60578.66;4973918;28;20062;-53
2022/01/25 08:41:28;;;;;;;57.25;20.63;;;;;;;-145.00;100.00;60578.66;4972643;28;20465;-54
2022/01/25 08:44:10;;;;;;;;;;;;;;;-145.00;100.00;60578.66;4959364;28;20101;-54
2022/01/25 08:46:41;;;;;;;57.33;20.23;;;;;;;-145.00;100.00;60578.66;4973069;28;20419;-54
2022/01/25 08:49:14;;;;;;;55.97;20.33;;;;;;;-145.00;100.00;60578.66;5026306;28;20614;-54
2022/01/25 08:51:58;;;;;;;;;;;;;;;-145.00;100.00;60578.66;4989783;28;20089;-54
2022/01/25 08:54:30;;;;;;;49.45;18.60;;;;;;;-145.00;100.00;60578.66;5036430;28;19921;-54
2022/01/25 08:57:05;;;;;;;51.20;20.95;;;;;;;-145.00;100.00;60578.66;5058136;28;20083;-54
2022/01/25 09:00:06;;;;;;;55.95;21.70;;;;;;;-145.00;100.00;60578.66;5070927;28;20400;-54
2022/01/25 09:02:34;;;;;;;40.17;16.35;;;;;;;-145.00;100.00;60578.66;5074360;28;20063;-54
2022/01/25 09:05:03;;;;;;;57.25;21.95;;;;;;;-145.00;100.00;60578.66;5074387;28;20069;-54
2022/01/25 09:07:32;;;;;;;56.63;24.63;;;;;;;-145.00;100.00;60578.66;5074864;28;20079;-54
2022/01/25 09:10:01;;;;;;;52.45;20.83;;;;;;;-145.00;100.00;60578.66;5074046;28;20088;-54
2022/01/25 09:12:29;;;;;;;43.08;20.05;;;;;;;-145.00;100.00;60578.66;5074058;28;20053;-54
2022/01/25 09:14:58;;;;;;;44.03;20.52;;;;;;;-145.00;100.00;60578.66;5074358;28;20060;-53
2022/01/25 09:17:26;;;;;;;36.50;17.95;;;;;;;-145.00;100.00;60578.66;5074037;28;20079;-53
2022/01/25 09:19:54;;;;;;;46.55;18.88;;;;;;;-145.00;100.00;60578.66;5074245;28;20052;-53
2022/01/25 09:22:26;;;;;;;47.97;21.23;;;;;;;-145.00;100.00;60578.66;5073440;28;20061;-53
2022/01/25 09:25:15;;;;;;;42.33;19.75;;;;;;;-145.00;100.00;60578.66;5073469;28;20071;-53
2022/01/25 09:27:47;;;;;;;37.67;18.33;;;;;;;-145.00;100.00;60578.66;5074154;28;20479;-53
2022/01/25 09:30:15;;;;;;;37.47;18.65;;;;;;;-145.00;100.00;60578.66;5073577;28;20056;-54
2022/01/25 09:32:44;;;;;;;41.65;18.67;;;;;;;-145.00;100.00;60578.66;5073569;28;20523;-53
2022/01/25 09:35:12;;;;;;;36.25;18.08;;;;;;;-145.00;100.00;60578.66;5073289;28;20063;-53
2022/01/25 09:37:40;;;;;;;38.42;18.05;;;;;;;-145.00;100.00;60578.66;5073516;28;20057;-54
2022/01/25 09:40:10;;;;;;;36.20;17.70;;;;;;;-145.00;100.00;60578.66;5073537;28;20504;-51
2022/01/25 09:42:40;;;;;;;36.38;17.52;;;;;;;-145.00;100.00;60578.66;5074147;28;20076;-51
2022/01/25 09:45:09;;;;;;;40.03;17.60;;;;;;;-145.00;100.00;60578.66;5074484;28;20396;-51
2022/01/25 09:47:38;;;;;;;37.67;18.70;;;;;;;-145.00;100.00;60578.66;5073350;28;20056;-51
2022/01/25 09:50:07;;;;;;;39.95;18.00;;;;;;;-145.00;100.00;60578.66;5073887;28;20381;-51
2022/01/25 09:52:36;;;;;;;44.92;20.30;;;;;;;-145.00;100.00;60578.66;5073276;28;20056;-51
2022/01/25 09:55:12;;;;;;;39.97;20.20;;;;;;;-145.00;100.00;60578.66;5073861;28;20079;-51
2022/01/25 09:57:42;;;;;;;37.10;18.48;;;;;;;-145.00;100.00;60578.66;5073432;28;20079;-52
2022/01/25 10:00:13;;;;;;;41.53;20.92;;;;;;;-145.00;100.00;60578.66;5073686;28;20053;-51
2022/01/25 10:02:48;;;;;;;38.65;20.15;;;;;;;-145.00;100.00;60578.66;5078061;28;20387;-51
2022/01/25 10:05:25;;;;;;;34.85;17.40;;;;;;;-145.00;100.00;60578.66;5077944;28;20068;-51
2022/01/25 10:07:59;;;;;;;35.00;18.02;;;;;;;-145.00;100.00;60578.66;5076548;28;20483;-51
2022/01/25 10:10:28;;;;;;;35.67;18.73;;;;;;;-145.00;100.00;60578.66;5077938;28;20056;-53
2022/01/25 10:13:08;;;;;;;36.03;17.23;;;;;;;-145.00;100.00;60578.66;5076663;28;20057;-54
2022/01/25 10:15:37;;;;;;;39.60;18.80;;;;;;;-145.00;100.00;60578.66;5077336;28;20061;-54
2022/01/25 10:18:16;;;;;;;38.10;17.27;;;;;;;-145.00;100.00;60578.66;5076352;28;20079;-54
2022/01/25 10:20:45;;;;;;;33.67;16.30;;;;;;;-145.00;100.00;60578.66;5077593;28;20056;-54
2022/01/25 10:23:17;;;;;;;33.80;16.67;;;;;;;-145.00;100.00;60578.66;5077162;28;20064;-54
2022/01/25 10:25:48;;;;;;;38.25;18.15;;;;;;;-145.00;100.00;60578.66;5077661;28;20060;-54
2022/01/25 10:28:24;;;;;;;38.38;16.48;;;;;;;-145.00;100.00;60578.66;5077641;28;20070;-54
2022/01/25 10:30:54;;;;;;;32.15;15.48;;;;;;;-145.00;100.00;60578.66;5077295;28;20063;-54
2022/01/25 10:33:28;;;;;;;34.58;15.90;;;;;;;-145.00;100.00;60578.66;5077086;28;20397;-54
2022/01/25 10:35:58;;;;;;;34.28;15.27;;;;;;;-145.00;100.00;60578.66;5076139;28;20500;-53
2022/01/25 10:38:30;;;;;;;35.58;15.07;;;;;;;-145.00;100.00;60578.66;5076252;28;20056;-53
2022/01/25 10:41:04;;;;;;;31.92;15.32;;;;;;;-145.00;100.00;60578.66;5077429;28;20057;-53
2022/01/25 10:43:36;;;;;;;34.95;15.88;;;;;;;-145.00;100.00;60578.66;5075811;28;20060;-51
2022/01/25 10:46:13;;;;;;;38.13;15.65;;;;;;;-145.00;100.00;60578.66;5077174;28;20408;-51
2022/01/25 10:48:44;;;;;;;38.55;15.73;;;;;;;-145.00;100.00;60578.66;5077177;28;20056;-51
2022/01/25 10:51:16;;;;;;;30.52;15.80;;;;;;;-145.00;100.00;60578.66;5076685;28;20143;-51
2022/01/25 10:53:44;;;;;;;30.58;13.73;;;;;;;-145.00;100.00;60578.66;5075816;28;20053;-51
2022/01/25 10:56:12;;;;;;;32.65;14.45;;;;;;;-145.00;100.00;60578.66;5076244;28;20113;-51
2022/01/25 10:58:43;;;;;;;35.90;15.82;;;;;;;-145.00;100.00;60578.66;5075955;28;20052;-51
2022/01/25 11:01:12;;;;;;;32.90;15.05;;;;;;;-145.00;100.00;60578.66;5076397;28;20489;-51
2022/01/25 11:03:42;;;;;;;28.63;13.23;;;;;;;-145.00;100.00;60578.66;5075772;28;20060;-51
2022/01/25 11:06:14;;;;;;;33.38;14.45;;;;;;;-145.00;100.00;60578.66;5076482;28;20060;-51
2022/01/25 11:08:43;;;;;;;41.72;15.13;;;;;;;-145.00;100.00;60578.66;5076157;28;20052;-51
2022/01/25 11:11:23;;;;;;;30.65;14.27;;;;;;;-145.00;100.00;60578.66;5075799;28;20053;-51
2022/01/25 11:13:53;;;;;;;33.30;13.82;;;;;;;-145.00;100.00;60578.66;5075328;28;20068;-51
2022/01/25 11:16:22;;;;;;;33.35;14.35;;;;;;;-145.00;100.00;60578.66;5075300;28;20076;-51
2022/01/25 11:18:50;;;;;;;28.77;12.82;;;;;;;-145.00;100.00;60578.66;5075754;28;20080;-52
2022/01/25 11:21:19;;;;;;;35.25;14.57;;;;;;;-145.00;100.00;60578.66;5075732;28;20056;-53
2022/01/25 11:23:48;;;;;;;35.42;12.90;;;;;;;-145.00;100.00;60578.66;5075592;28;20091;-51
2022/01/25 11:26:16;;;;;;;36.72;13.70;;;;;;;-145.00;100.00;60578.66;5074869;28;20135;-51
2022/01/25 11:28:46;;;;;;;34.03;15.48;;;;;;;-145.00;100.00;60578.66;5075574;28;20542;-51
2022/01/25 11:31:20;;;;;;;37.70;16.20;;;;;;;-145.00;100.00;60578.66;5075723;28;20139;-51
2022/01/25 11:33:50;;;;;;;38.22;13.63;;;;;;;-145.00;100.00;60578.66;5075698;28;20056;-51
2022/01/25 11:36:19;;;;;;;45.58;15.70;;;;;;;-145.00;100.00;60578.66;5075749;28;20056;-51
2022/01/25 11:38:49;;;;;;;32.42;13.93;;;;;;;-145.00;100.00;60578.66;5074973;28;20088;-51
2022/01/25 11:41:19;;;;;;;33.25;14.15;;;;;;;-145.00;100.00;60578.66;5075660;28;20064;-51
2022/01/25 11:44:08;;;;;;;35.85;14.10;;;;;;;-145.00;100.00;60578.66;5075745;28;20071;-51
2022/01/25 11:46:39;;;;;;;34.63;15.55;;;;;;;-145.00;100.00;60578.66;5074742;28;20064;-51
2022/01/25 11:49:14;;;;;;;27.80;10.98;;;;;;;-145.00;100.00;60578.66;5075756;28;20114;-51
2022/01/25 11:51:43;;;;;;;41.50;20.98;;;;;;;-145.00;100.00;60578.66;5075272;28;20052;-51
2022/01/25 11:54:11;;;;;;;45.88;18.83;;;;;;;-145.00;100.00;60578.66;5075049;28;20075;-51
2022/01/25 11:56:41;;;;;;;30.50;13.27;;;;;;;-145.00;100.00;60578.66;5074882;28;20401;-51
2022/01/25 11:59:11;;;;;;;42.20;14.43;;;;;;;-145.00;100.00;60578.66;5074570;28;20178;-51
2022/01/25 12:01:41;;;;;;;31.15;13.70;;;;;;;-145.00;100.00;60578.66;5074357;28;20508;-51
2022/01/25 12:04:12;;;;;;;33.50;14.02;;;;;;;-145.00;100.00;60578.66;5074467;28;20053;-51
2022/01/25 12:06:44;;;;;;;40.73;13.63;;;;;;;-145.00;100.00;60578.66;5074177;28;20530;-51
2022/01/25 12:09:18;;;;;;;39.72;15.02;;;;;;;-145.00;100.00;60578.66;5075529;28;20650;-51
2022/01/25 12:11:49;;;;;;;33.85;14.45;;;;;;;-145.00;100.00;60578.66;5074403;28;20080;-51
2022/01/25 12:14:24;;;;;;;34.50;14.07;;;;;;;-145.00;100.00;60578.66;5074853;28;20060;-51
2022/01/25 12:16:57;;;;;;;40.17;15.13;;;;;;;-145.00;100.00;60578.66;5074276;28;20511;-51
2022/01/25 12:19:38;;;;;;;36.30;14.00;;;;;;;-145.00;100.00;60578.66;5074871;28;20056;-51
2022/01/25 12:22:11;;;;;;;36.97;13.73;;;;;;;-145.00;100.00;60578.66;5075284;28;20060;-51